Time;durP1;ratioP1;P1;durP2;ratioP2;P2;SDS_P1;SDS_P2;PMS_P1;PMS_P2;Temp;Humidity;BMP_temperature;BMP_pressure;BME280_temperature;BME280_humidity;BME280_pressure;Samples;Min_cycle;Max_cycle;Signal;HPM_P1;HPM_P2
2023/07/06 00:00:48;;;;;;;5.47;5.18;;;;;;;13.26;100.00;101222.72;6083678;23;20018;-74
2023/07/06 00:03:14;;;;;;;5.78;5.15;;;;;;;12.76;100.00;101142.03;6085599;23;20029;-73
2023/07/06 00:05:44;;;;;;;5.30;5.00;;;;;;;12.99;100.00;101182.94;6086037;23;20030;-72
2023/07/06 00:08:12;;;;;;;5.38;5.03;;;;;;;13.16;100.00;101224.16;6085066;23;20022;-72
2023/07/06 00:10:41;;;;;;;5.38;5.07;;;;;;;12.77;100.00;101173.56;6083215;23;20030;-74
2023/07/06 00:13:09;;;;;;;5.90;5.50;;;;;;;13.04;100.00;101223.03;6086966;23;20025;-73
2023/07/06 00:15:36;;;;;;;5.35;4.95;;;;;;;12.52;100.00;101138.94;6086959;23;20025;-72
2023/07/06 00:18:03;;;;;;;5.68;5.38;;;;;;;12.93;100.00;101214.88;6082066;23;20022;-73
2023/07/06 00:20:37;;;;;;;5.00;4.68;;;;;;;12.90;100.00;101222.94;6082652;23;20032;-72
2023/07/06 00:23:04;;;;;;;5.78;5.32;;;;;;;12.84;100.00;101220.63;6074362;23;20094;-73
2023/07/06 00:25:33;;;;;;;5.78;5.35;;;;;;;12.77;100.00;101215.69;6080409;23;20557;-73
2023/07/06 00:28:02;;;;;;;5.75;5.35;;;;;;;12.53;100.00;101185.41;6055798;23;20078;-73
2023/07/06 00:33:12;;;;;;;5.25;4.88;;;;;;;12.58;100.00;101225.50;6080661;23;20022;-74
2023/07/06 00:35:40;;;;;;;5.30;4.90;;;;;;;12.52;100.00;101217.91;6088074;23;20034;-74
2023/07/06 00:38:10;;;;;;;5.28;4.97;;;;;;;12.35;100.00;101201.22;6063450;23;22474;-73
2023/07/06 00:40:39;;;;;;;5.32;4.93;;;;;;;12.50;100.00;101227.69;6083563;23;20029;-74
2023/07/06 00:43:09;;;;;;;5.72;5.32;;;;;;;12.25;100.00;101186.84;6053918;23;20029;-73
2023/07/06 00:45:37;;;;;;;5.63;5.15;;;;;;;12.11;100.00;101169.13;6068547;23;20527;-75
2023/07/06 00:48:13;;;;;;;5.90;5.50;;;;;;;12.06;100.00;101183.44;6082807;23;20053;-74
2023/07/06 00:50:39;;;;;;;5.13;4.82;;;;;;;11.65;100.00;101104.81;6077173;23;20024;-75
2023/07/06 00:53:13;;;;;;;5.22;4.93;;;;;;;12.00;100.00;101176.69;6086686;23;20014;-73
2023/07/06 00:55:40;;;;;;;5.03;4.72;;;;;;;12.30;100.00;101226.91;6083232;23;20028;-73
2023/07/06 00:58:18;;;;;;;5.10;4.80;;;;;;;12.27;100.00;101228.88;6082208;23;21459;-72
2023/07/06 01:00:47;;;;;;;9.85;5.60;;;;;;;11.73;100.00;101145.56;6085241;23;20538;-73
2023/07/06 01:03:19;;;;;;;5.35;5.05;;;;;;;12.17;100.00;101231.09;6081861;23;20455;-74
2023/07/06 01:05:52;;;;;;;5.50;5.10;;;;;;;11.65;100.00;101155.63;6102286;23;20596;-73
2023/07/06 01:08:22;;;;;;;5.07;4.78;;;;;;;12.11;100.00;101227.00;6075489;23;20029;-74
2023/07/06 01:10:49;;;;;;;5.40;5.10;;;;;;;12.07;100.00;101235.97;6084578;23;20028;-73
2023/07/06 01:13:19;;;;;;;5.22;4.93;;;;;;;12.02;100.00;101232.72;6085105;23;20081;-73
2023/07/06 01:15:51;;;;;;;6.30;5.55;;;;;;;12.01;100.00;101236.28;6087594;23;20014;-73
2023/07/06 01:18:32;;;;;;;9.95;5.30;;;;;;;11.97;100.00;101229.47;6081739;23;20101;-72
2023/07/06 01:21:23;;;;;;;5.53;5.22;;;;;;;11.90;100.00;101230.69;6056858;23;21372;-72
2023/07/06 01:24:17;;;;;;;4.93;4.72;;;;;;;11.73;100.00;101215.72;6085193;23;20018;-73
2023/07/06 01:26:47;;;;;;;5.30;5.00;;;;;;;11.83;100.00;101239.78;6082724;23;20018;-74
2023/07/06 01:29:39;;;;;;;5.93;5.53;;;;;;;11.82;100.00;101238.06;6084337;23;20026;-73
2023/07/06 01:32:16;;;;;;;5.70;5.38;;;;;;;11.42;100.00;101190.03;6086673;23;20053;-74
2023/07/06 01:34:53;;;;;;;11.27;5.25;;;;;;;11.75;100.00;101256.78;6076560;23;20014;-76
2023/07/06 01:37:41;;;;;;;5.20;4.90;;;;;;;11.67;100.00;101253.66;6051007;23;20628;-76
2023/07/06 01:40:11;;;;;;;4.97;4.78;;;;;;;11.37;100.00;101213.94;6081073;23;20056;-73
2023/07/06 01:42:40;;;;;;;5.22;4.82;;;;;;;11.66;100.00;101261.63;6085155;23;20029;-73
2023/07/06 01:45:10;;;;;;;5.43;5.13;;;;;;;11.61;100.00;101266.25;6063215;23;20699;-73
2023/07/06 01:47:42;;;;;;;5.03;4.65;;;;;;;11.57;100.00;101263.75;6085655;23;20018;-72
2023/07/06 01:50:12;;;;;;;5.05;4.78;;;;;;;11.27;100.00;101224.00;6055795;23;20022;-75
2023/07/06 01:52:41;;;;;;;7.63;5.40;;;;;;;11.52;100.00;101271.00;6103466;23;20030;-73
2023/07/06 01:55:30;;;;;;;6.20;5.55;;;;;;;11.16;100.00;101219.28;6082077;23;20047;-72
2023/07/06 01:58:23;;;;;;;5.63;5.20;;;;;;;11.49;100.00;101270.31;6058348;23;20029;-75
2023/07/06 02:00:55;;;;;;;5.45;4.95;;;;;;;11.45;100.00;101268.75;6081642;23;20153;-74
2023/07/06 02:03:25;;;;;;;5.60;5.03;;;;;;;11.42;100.00;101275.00;6085599;23;20069;-73
2023/07/06 02:05:52;;;;;;;5.03;4.72;;;;;;;11.38;100.00;101274.31;6084174;23;20058;-71
2023/07/06 02:08:20;;;;;;;5.78;5.38;;;;;;;10.95;100.00;101212.38;6082187;23;20025;-72
2023/07/06 02:10:47;;;;;;;5.07;4.78;;;;;;;11.04;100.00;101232.94;6080379;23;20022;-72
2023/07/06 02:13:16;;;;;;;19.60;5.32;;;;;;;11.16;100.00;101247.28;6078433;23;20021;-74
2023/07/06 02:15:46;;;;;;;5.13;4.82;;;;;;;11.30;100.00;101267.69;6079006;23;20089;-73
2023/07/06 02:18:12;;;;;;;5.20;4.93;;;;;;;11.41;100.00;101275.94;6084663;23;20055;-73
2023/07/06 02:20:39;;;;;;;5.60;4.97;;;;;;;11.32;100.00;101277.19;6079404;23;20030;-73
2023/07/06 02:23:07;;;;;;;5.47;5.18;;;;;;;10.96;100.00;101219.31;6098517;23;20017;-74
2023/07/06 02:25:35;;;;;;;5.57;5.18;;;;;;;11.23;100.00;101268.91;6107739;23;20029;-74
2023/07/06 02:28:03;;;;;;;5.40;4.90;;;;;;;11.08;100.00;101254.66;6083580;23;20013;-72
2023/07/06 02:30:29;;;;;;;5.43;5.13;;;;;;;11.16;100.00;101268.31;6106858;23;20041;-73
2023/07/06 02:32:56;;;;;;;5.47;5.00;;;;;;;11.00;100.00;101244.50;6108634;23;20009;-73
2023/07/06 02:35:22;;;;;;;5.72;5.28;;;;;;;10.71;100.00;101201.19;6106391;23;20025;-73
2023/07/06 02:37:49;;;;;;;5.78;5.30;;;;;;;11.10;100.00;101276.47;6113196;23;20025;-71
2023/07/06 02:40:17;;;;;;;5.32;5.03;;;;;;;11.03;100.00;101262.75;6082600;23;20026;-74
2023/07/06 02:42:44;;;;;;;5.80;5.32;;;;;;;10.68;100.00;101204.78;6106440;23;20010;-75
2023/07/06 02:45:11;;;;;;;11.20;5.85;;;;;;;11.09;100.00;101274.78;6113704;23;20036;-72
2023/07/06 02:47:40;;;;;;;5.93;5.20;;;;;;;10.78;100.00;101226.22;6111109;23;20034;-72
2023/07/06 02:50:11;;;;;;;5.72;5.18;;;;;;;10.92;100.00;101244.00;6110246;23;20037;-75
2023/07/06 02:52:38;;;;;;;5.50;5.20;;;;;;;10.79;100.00;101225.31;6086779;23;20077;-73
2023/07/06 02:55:05;;;;;;;5.50;4.95;;;;;;;11.05;100.00;101279.31;6108018;23;20018;-74
2023/07/06 02:57:31;;;;;;;5.07;4.78;;;;;;;10.69;100.00;101235.38;6083672;23;21764;-72
2023/07/06 02:59:58;;;;;;;8.43;5.32;;;;;;;10.98;100.00;101285.75;6102337;23;20032;-73
2023/07/06 03:02:24;;;;;;;5.72;4.93;;;;;;;10.90;100.00;101278.19;6112161;23;20025;-74
2023/07/06 03:04:53;;;;;;;5.60;5.20;;;;;;;10.85;100.00;101269.69;6083415;23;20097;-74
2023/07/06 03:07:19;;;;;;;6.68;5.40;;;;;;;10.94;100.00;101286.81;6108224;23;20094;-73
2023/07/06 03:09:46;;;;;;;5.50;5.05;;;;;;;10.79;100.00;101259.47;6068450;23;20050;-74
2023/07/06 03:12:14;;;;;;;11.50;5.30;;;;;;;10.67;100.00;101252.97;6110852;23;20087;-75
2023/07/06 03:14:41;;;;;;;8.20;4.43;;;;;;;10.62;100.00;101233.94;6115553;23;20026;-74
2023/07/06 03:17:08;;;;;;;5.60;5.30;;;;;;;10.60;100.00;101243.66;6087987;23;20081;-73
2023/07/06 03:19:34;;;;;;;4.90;4.43;;;;;;;10.90;100.00;101280.81;6111820;23;20021;-74
2023/07/06 03:22:01;;;;;;;5.30;4.93;;;;;;;10.76;100.00;101265.72;6097348;23;20631;-73
2023/07/06 03:24:27;;;;;;;5.20;4.88;;;;;;;10.87;100.00;101288.84;6110913;23;20013;-73
2023/07/06 03:26:54;;;;;;;5.32;4.90;;;;;;;9.98;100.00;101151.81;6113762;23;20025;-75
2023/07/06 03:29:21;;;;;;;5.32;4.93;;;;;;;10.42;100.00;101221.69;6106559;23;20113;-75
2023/07/06 03:31:47;;;;;;;4.97;4.68;;;;;;;10.81;100.00;101283.88;6114783;23;20077;-74
2023/07/06 03:34:14;;;;;;;5.70;5.28;;;;;;;10.67;100.00;101276.59;6110541;23;20046;-75
2023/07/06 03:36:41;;;;;;;5.28;4.88;;;;;;;10.24;100.00;101204.91;6108335;23;20106;-75
2023/07/06 03:39:12;;;;;;;6.38;5.88;;;;;;;10.81;100.00;101285.66;6109071;23;20032;-74
2023/07/06 03:41:39;;;;;;;4.85;4.55;;;;;;;10.71;100.00;101270.28;6088125;23;20022;-74
2023/07/06 03:44:06;;;;;;;6.78;5.50;;;;;;;10.83;100.00;101289.91;6079679;23;20738;-76
2023/07/06 03:46:33;;;;;;;5.35;4.90;;;;;;;10.78;100.00;101274.38;6115616;23;20097;-76
2023/07/06 03:49:07;;;;;;;5.38;5.07;;;;;;;10.72;100.00;101264.13;6112349;23;20102;-75
2023/07/06 03:51:34;;;;;;;5.45;5.05;;;;;;;10.92;100.00;101283.38;6085096;23;20079;-75
2023/07/06 03:54:05;;;;;;;5.03;4.65;;;;;;;10.81;100.00;101256.78;6113183;23;20021;-75
2023/07/06 03:56:33;;;;;;;6.47;5.30;;;;;;;10.27;100.00;101165.44;6117000;23;20037;-74
2023/07/06 03:59:00;;;;;;;7.38;4.80;;;;;;;11.05;100.00;101291.59;6092586;23;20733;-73
2023/07/06 04:01:27;;;;;;;5.70;5.30;;;;;;;11.09;100.00;101288.75;6114103;23;20080;-76
2023/07/06 04:03:55;;;;;;;7.03;5.15;;;;;;;11.13;100.00;101287.69;6122565;23;20028;-75
2023/07/06 04:06:24;;;;;;;5.78;5.38;;;;;;;10.89;100.00;101245.00;6124975;23;20089;-76
2023/07/06 04:08:53;;;;;;;5.65;5.25;;;;;;;11.27;100.00;101292.31;6117193;23;20033;-76
2023/07/06 04:11:20;;;;;;;5.05;4.75;;;;;;;11.36;100.00;101284.00;6116308;23;20026;-75
2023/07/06 04:13:46;;;;;;;6.68;5.15;;;;;;;11.56;100.00;101287.50;6115495;23;20005;-76
2023/07/06 04:16:18;;;;;;;5.57;5.18;;;;;;;12.30;100.00;101292.69;6115248;23;20036;-74
2023/07/06 04:18:45;;;;;;;5.30;5.00;;;;;;;13.25;100.00;101288.69;6088828;23;20553;-74
2023/07/06 04:21:19;;;;;;;5.90;5.40;;;;;;;14.05;100.00;101279.91;6091801;23;20080;-74
2023/07/06 04:23:47;;;;;;;5.88;5.38;;;;;;;14.94;100.00;101260.56;6114189;23;20242;-75
2023/07/06 04:26:18;;;;;;;5.30;5.00;;;;;;;15.45;100.00;101215.06;6113961;23;20077;-73
2023/07/06 04:28:44;;;;;;;6.28;5.25;;;;;;;15.47;100.00;101087.06;6116779;23;20001;-73
2023/07/06 04:31:11;;;;;;;5.45;5.15;;;;;;;16.55;100.00;101122.09;6114514;23;20374;-75
2023/07/06 04:33:38;;;;;;;5.32;5.03;;;;;;;16.99;100.00;101072.19;6084205;23;20632;-75
2023/07/06 04:36:05;;;;;;;6.15;5.10;;;;;;;17.42;100.00;101040.66;6116711;23;20033;-73
2023/07/06 04:38:32;;;;;;;6.20;5.80;;;;;;;17.50;93.04;100982.53;6084868;23;20015;-74
2023/07/06 04:40:59;;;;;;;6.07;5.68;;;;;;;17.96;89.37;100974.63;6116155;23;20036;-75
2023/07/06 04:43:26;;;;;;;9.82;5.82;;;;;;;18.23;86.96;100953.84;6083672;23;20026;-76
2023/07/06 04:45:55;;;;;;;5.75;5.45;;;;;;;18.16;83.30;100883.56;6111266;23;20018;-75
2023/07/06 04:48:24;;;;;;;6.22;5.72;;;;;;;18.48;81.26;100854.38;6114135;23;20017;-73
2023/07/06 04:50:54;;;;;;;6.25;5.85;;;;;;;19.19;78.99;100893.66;6117139;23;20570;-76
2023/07/06 04:53:21;;;;;;;5.85;5.45;;;;;;;19.19;74.84;100828.97;6112290;23;20021;-76
2023/07/06 04:55:50;;;;;;;6.35;5.85;;;;;;;19.58;74.47;100840.59;6089688;23;20050;-74
2023/07/06 04:58:18;;;;;;;6.03;5.63;;;;;;;18.96;71.37;100696.13;6113720;23;20040;-75
2023/07/06 05:00:45;;;;;;;6.25;5.80;;;;;;;19.32;70.76;100710.69;6111484;23;20205;-75
2023/07/06 05:03:13;;;;;;;6.22;5.65;;;;;;;18.97;69.82;100699.66;6087678;23;20028;-74
2023/07/06 05:05:42;;;;;;;6.50;6.00;;;;;;;19.25;70.84;100740.63;6116421;23;20056;-72
2023/07/06 05:08:10;;;;;;;6.18;5.88;;;;;;;19.68;69.90;100731.47;6088441;23;20110;-73
2023/07/06 05:10:38;;;;;;;6.10;5.80;;;;;;;20.31;67.83;100699.09;6112791;23;20049;-74
2023/07/06 05:13:05;;;;;;;6.30;5.90;;;;;;;19.91;64.52;100545.66;6112546;23;20018;-74
2023/07/06 05:15:32;;;;;;;5.75;5.25;;;;;;;20.17;66.52;100705.72;6116570;23;20627;-72
2023/07/06 05:18:01;;;;;;;6.10;5.70;;;;;;;20.51;65.25;100675.91;6116340;23;20153;-72
2023/07/06 05:20:30;;;;;;;6.43;6.10;;;;;;;20.52;63.78;100618.91;6111619;23;20037;-74
2023/07/06 05:22:57;;;;;;;6.25;5.85;;;;;;;20.56;64.83;100633.63;6116365;23;20091;-74
2023/07/06 05:25:26;;;;;;;6.55;5.75;;;;;;;20.96;63.84;100621.81;6111053;23;20076;-72
2023/07/06 05:27:53;;;;;;;6.50;6.00;;;;;;;21.31;61.04;100558.81;6086605;23;20093;-75
2023/07/06 05:30:19;;;;;;;6.13;5.80;;;;;;;21.25;61.39;100572.78;6107553;23;20323;-74
2023/07/06 05:32:49;;;;;;;6.28;5.78;;;;;;;21.15;62.82;100590.66;6117853;23;20021;-75
2023/07/06 05:35:16;;;;;;;10.27;6.07;;;;;;;21.18;61.55;100558.34;6088297;23;20023;-75
2023/07/06 05:37:42;;;;;;;6.07;5.78;;;;;;;21.40;62.53;100603.25;6119911;23;20025;-73
2023/07/06 05:40:13;;;;;;;6.18;5.78;;;;;;;21.71;60.85;100579.69;6084283;23;20112;-75
2023/07/06 05:42:39;;;;;;;6.03;5.70;;;;;;;21.73;61.04;100557.31;6114426;23;20079;-73
2023/07/06 05:45:09;;;;;;;5.80;5.50;;;;;;;22.01;60.76;100572.22;6115011;23;20040;-76
2023/07/06 05:47:35;;;;;;;6.07;5.57;;;;;;;21.95;58.52;100462.44;6113302;23;20095;-75
2023/07/06 05:50:02;;;;;;;6.15;5.75;;;;;;;21.96;58.25;100498.88;6086326;23;20606;-75
2023/07/06 05:52:29;;;;;;;6.10;5.72;;;;;;;22.42;58.54;100524.31;6111114;23;20021;-72
2023/07/06 05:54:55;;;;;;;6.63;6.03;;;;;;;22.22;57.63;100480.09;6113017;23;20025;-72
2023/07/06 05:57:22;;;;;;;6.38;5.97;;;;;;;22.64;57.79;100557.66;6112568;23;20605;-72
2023/07/06 05:59:50;;;;;;;6.45;5.95;;;;;;;22.91;56.78;100547.69;6114879;23;20021;-72
2023/07/06 06:02:19;;;;;;;6.30;5.90;;;;;;;22.53;57.55;100533.88;6085860;23;20028;-74
2023/07/06 06:04:47;;;;;;;6.47;5.97;;;;;;;23.28;56.44;100549.94;6111114;23;20963;-73
2023/07/06 06:07:14;;;;;;;6.03;5.63;;;;;;;23.12;56.10;100523.16;6111748;23;20017;-74
2023/07/06 06:09:41;;;;;;;6.20;5.70;;;;;;;21.28;56.73;100409.63;6109461;23;20073;-74
2023/07/06 06:12:08;;;;;;;6.22;5.72;;;;;;;21.89;58.29;100601.03;6060553;23;20473;-73
2023/07/06 06:14:35;;;;;;;6.22;5.60;;;;;;;22.42;58.34;100636.63;6110876;23;20394;-73
2023/07/06 06:17:01;;;;;;;6.15;5.70;;;;;;;22.53;57.78;100634.66;6066009;23;20033;-73
2023/07/06 06:19:35;;;;;;;5.90;5.50;;;;;;;23.15;55.75;100624.56;6109775;23;20029;-73
2023/07/06 06:22:04;;;;;;;6.40;6.00;;;;;;;23.13;55.76;100590.94;6082731;23;20749;-73
2023/07/06 06:24:30;;;;;;;8.13;6.00;;;;;;;23.28;54.92;100575.91;6077220;23;20099;-74
2023/07/06 06:26:57;;;;;;;5.93;5.63;;;;;;;23.29;53.41;100566.84;6110159;23;20147;-74
2023/07/06 06:29:23;;;;;;;6.38;5.80;;;;;;;22.57;53.51;100492.47;6109761;23;20028;-73
2023/07/06 06:31:50;;;;;;;6.10;5.70;;;;;;;21.87;55.77;100541.56;6088085;23;20765;-74
2023/07/06 06:34:16;;;;;;;5.90;5.60;;;;;;;20.34;59.14;100541.53;6107856;23;20791;-75
2023/07/06 06:36:43;;;;;;;6.22;5.82;;;;;;;20.64;61.22;100732.44;6112657;23;20036;-74
2023/07/06 06:39:09;;;;;;;5.75;5.45;;;;;;;20.21;61.99;100752.41;6083043;23;20021;-75
2023/07/06 06:41:39;;;;;;;6.13;5.70;;;;;;;19.72;63.61;100788.81;6112222;23;20021;-74
2023/07/06 06:44:05;;;;;;;6.68;6.18;;;;;;;19.69;66.30;100879.63;6088428;23;20026;-72
2023/07/06 06:46:32;;;;;;;6.22;5.63;;;;;;;19.12;65.60;100828.63;6110634;23;20032;-72
2023/07/06 06:48:58;;;;;;;5.85;5.55;;;;;;;18.84;65.56;100816.88;6107649;23;20183;-73
2023/07/06 06:51:27;;;;;;;6.10;5.70;;;;;;;18.06;69.14;100858.72;6113895;23;20017;-73
2023/07/06 06:53:53;;;;;;;6.05;5.55;;;;;;;18.05;70.60;100912.84;6112374;23;20040;-71
2023/07/06 06:56:22;;;;;;;8.93;5.72;;;;;;;18.62;70.68;100953.38;6106092;23;20525;-73
2023/07/06 06:58:49;;;;;;;8.60;5.50;;;;;;;18.00;71.05;100893.75;6112870;23;20643;-73
2023/07/06 07:01:18;;;;;;;6.15;5.50;;;;;;;17.85;70.90;100894.03;6083076;23;20025;-74
2023/07/06 07:03:45;;;;;;;5.53;5.20;;;;;;;18.00;72.30;100941.56;6086182;23;20075;-73
2023/07/06 07:06:13;;;;;;;6.20;5.80;;;;;;;18.54;73.67;101033.75;6107279;23;20021;-73
2023/07/06 07:08:49;;;;;;;5.70;5.40;;;;;;;18.62;71.83;100998.56;6083455;23;20028;-72
2023/07/06 07:11:19;;;;;;;5.43;5.20;;;;;;;18.97;72.16;101030.28;6085863;23;20102;-72
2023/07/06 07:13:51;;;;;;;5.65;5.35;;;;;;;18.85;71.63;100973.63;6109604;23;20594;-72
2023/07/06 07:16:19;;;;;;;5.80;5.50;;;;;;;18.87;70.72;100984.16;6113857;23;20018;-72
2023/07/06 07:18:46;;;;;;;5.75;5.38;;;;;;;19.15;72.29;101030.59;6113252;23;20037;-71
2023/07/06 07:21:14;;;;;;;6.25;5.72;;;;;;;19.33;71.92;101030.88;6116477;23;20044;-73
2023/07/06 07:23:46;;;;;;;5.78;5.40;;;;;;;19.50;70.69;101017.00;6114195;23;20025;-72
2023/07/06 07:26:14;;;;;;;7.20;6.00;;;;;;;19.67;69.08;100996.06;6115258;23;20025;-73
2023/07/06 07:28:41;;;;;;;5.50;5.00;;;;;;;19.63;69.00;100978.66;6111029;23;20075;-70
2023/07/06 07:31:11;;;;;;;5.55;5.25;;;;;;;19.51;68.25;100949.44;6115634;23;20041;-72
2023/07/06 07:33:41;;;;;;;6.38;5.13;;;;;;;19.71;69.71;101021.47;6091614;23;20044;-71
2023/07/06 07:36:11;;;;;;;5.55;5.20;;;;;;;19.50;67.53;100922.94;6109381;23;20028;-72
2023/07/06 07:38:39;;;;;;;5.47;5.18;;;;;;;19.86;67.91;100976.69;6115289;23;20022;-72
2023/07/06 07:41:07;;;;;;;8.32;5.40;;;;;;;19.85;66.29;100927.91;6117456;23;20025;-71
2023/07/06 07:43:38;;;;;;;6.53;5.40;;;;;;;19.50;68.94;100982.38;6087192;23;20045;-73
2023/07/06 07:46:06;;;;;;;7.70;5.30;;;;;;;19.62;68.39;100974.28;6114609;23;20037;-72
2023/07/06 07:48:38;;;;;;;5.30;5.10;;;;;;;19.23;69.60;100966.94;6111222;23;20043;-72
2023/07/06 07:51:09;;;;;;;5.30;5.00;;;;;;;19.22;70.92;101013.13;6087977;23;20038;-71
2023/07/06 07:53:38;;;;;;;5.95;5.55;;;;;;;19.45;73.07;101067.09;6116349;23;20028;-72
2023/07/06 07:56:07;;;;;;;6.10;5.50;;;;;;;19.95;71.36;101061.16;6116435;23;20034;-72
2023/07/06 07:58:36;;;;;;;6.30;5.40;;;;;;;20.30;68.23;101015.41;6091416;23;20025;-72
2023/07/06 08:01:09;;;;;;;7.43;5.45;;;;;;;20.09;66.58;100956.03;6090541;23;20049;-72
2023/07/06 08:03:36;;;;;;;5.20;4.90;;;;;;;20.19;67.65;100988.88;6090621;23;20053;-72
2023/07/06 08:06:06;;;;;;;5.80;5.30;;;;;;;20.23;65.47;100926.34;6114649;23;20033;-72
2023/07/06 08:08:35;;;;;;;5.68;5.28;;;;;;;20.22;65.51;100921.97;6090051;23;20038;-72
2023/07/06 08:11:04;;;;;;;5.95;5.43;;;;;;;20.24;64.80;100898.69;6120870;23;20100;-72
2023/07/06 08:13:31;;;;;;;5.38;5.07;;;;;;;20.31;63.46;100885.69;6115092;23;20024;-72
2023/07/06 08:15:59;;;;;;;5.47;5.13;;;;;;;19.51;64.33;100787.06;6121205;23;20152;-72
2023/07/06 08:18:26;;;;;;;5.82;5.32;;;;;;;20.48;65.17;100962.28;6117333;23;20028;-73
2023/07/06 08:20:55;;;;;;;9.57;8.40;;;;;;;20.49;63.23;100920.50;6117008;23;20122;-72
2023/07/06 08:23:49;;;;;;;5.50;5.20;;;;;;;20.52;65.18;100960.19;6112956;23;20036;-71
2023/07/06 08:26:17;;;;;;;5.80;5.50;;;;;;;20.37;63.69;100926.94;6114291;23;20033;-71
2023/07/06 08:28:46;;;;;;;5.70;5.40;;;;;;;20.62;64.69;100974.41;6111863;23;20021;-71
2023/07/06 08:31:16;;;;;;;5.70;5.40;;;;;;;20.59;62.50;100913.38;6112531;23;20032;-70
2023/07/06 08:33:47;;;;;;;6.22;5.65;;;;;;;20.61;63.92;100951.41;6095467;23;20010;-70
2023/07/06 08:36:15;;;;;;;5.70;5.40;;;;;;;20.44;63.01;100874.72;6112273;23;20033;-71
2023/07/06 08:38:43;;;;;;;8.38;5.25;;;;;;;21.06;63.36;100956.16;6113744;23;20017;-71
2023/07/06 08:41:18;;;;;;;5.90;5.20;;;;;;;21.29;61.05;100892.63;6112880;23;20029;-72
2023/07/06 08:43:46;;;;;;;7.43;5.50;;;;;;;20.94;60.92;100809.72;6118999;23;20014;-71
2023/07/06 08:46:13;;;;;;;6.90;5.68;;;;;;;21.32;62.18;100932.38;6083373;23;20029;-71
2023/07/06 08:48:41;;;;;;;7.35;5.38;;;;;;;20.64;60.50;100799.09;6113765;23;20049;-71
2023/07/06 08:51:20;;;;;;;6.00;5.45;;;;;;;21.11;61.51;100924.56;6110711;23;20069;-71
2023/07/06 08:53:52;;;;;;;5.80;5.40;;;;;;;21.18;62.21;100921.31;6092160;23;20153;-71
2023/07/06 08:56:23;;;;;;;6.43;5.88;;;;;;;21.06;62.33;100917.97;6113086;23;20053;-71
2023/07/06 08:58:50;;;;;;;5.72;5.38;;;;;;;21.44;60.43;100873.50;6064500;23;20030;-72
2023/07/06 09:01:22;;;;;;;5.75;5.35;;;;;;;21.31;60.37;100885.31;6092148;23;20037;-70
2023/07/06 09:03:51;;;;;;;5.40;4.90;;;;;;;21.29;60.24;100875.78;6111315;23;20050;-71
2023/07/06 09:06:21;;;;;;;5.50;5.20;;;;;;;21.38;60.32;100904.25;6113595;23;21776;-70
2023/07/06 09:08:53;;;;;;;6.05;5.55;;;;;;;21.46;60.03;100883.03;6111220;23;20022;-70
2023/07/06 09:11:23;;;;;;;5.82;5.53;;;;;;;21.46;60.63;100909.72;6083701;23;20032;-71
2023/07/06 09:13:55;;;;;;;6.28;5.68;;;;;;;21.30;60.20;100872.94;6111095;23;20433;-72
2023/07/06 09:16:23;;;;;;;5.70;5.40;;;;;;;21.34;59.06;100825.44;6083823;23;20036;-71
2023/07/06 09:18:52;;;;;;;5.57;5.28;;;;;;;20.70;58.60;100733.69;6114799;23;20020;-70
2023/07/06 09:21:25;;;;;;;5.93;5.53;;;;;;;21.20;58.92;100834.75;6112790;23;20091;-70
2023/07/06 09:23:53;;;;;;;5.88;5.43;;;;;;;21.06;58.67;100797.88;6110798;23;20377;-71
2023/07/06 09:26:29;;;;;;;5.90;5.53;;;;;;;21.26;58.13;100785.28;6110590;23;20412;-71
2023/07/06 09:29:25;;;;;;;5.75;5.35;;;;;;;21.32;57.52;100787.38;6107528;23;20030;-70
2023/07/06 09:32:16;;;;;;;5.50;5.03;;;;;;;21.73;57.25;100809.25;6112009;23;20047;-71
2023/07/06 09:34:46;;;;;;;5.93;5.43;;;;;;;21.78;55.05;100702.78;6110645;23;20025;-71
2023/07/06 09:37:14;;;;;;;5.68;5.32;;;;;;;21.52;53.93;100622.59;6084503;23;20025;-73
2023/07/06 09:39:41;;;;;;;5.68;5.38;;;;;;;22.03;54.51;100743.06;6111181;23;20076;-72
2023/07/06 09:42:10;;;;;;;5.95;5.45;;;;;;;22.30;53.05;100684.19;6114120;23;20021;-73
2023/07/06 09:44:41;;;;;;;5.88;5.57;;;;;;;22.24;53.08;100684.81;6106510;23;20617;-71
2023/07/06 09:47:13;;;;;;;5.47;5.18;;;;;;;21.78;52.27;100581.72;6089043;23;20040;-70
2023/07/06 09:50:00;;;;;;;5.55;5.25;;;;;;;21.70;51.99;100623.41;6114814;23;20077;-71
2023/07/06 09:52:28;;;;;;;6.03;5.57;;;;;;;21.83;51.50;100607.00;6105394;23;20777;-71
2023/07/06 09:55:19;;;;;;;5.50;5.20;;;;;;;22.28;50.70;100622.00;6114660;23;20063;-71
2023/07/06 09:57:49;;;;;;;8.35;5.38;;;;;;;22.20;48.36;100466.06;6106212;23;20028;-71
2023/07/06 10:00:19;;;;;;;5.63;5.32;;;;;;;22.28;49.68;100525.75;6107878;23;20045;-71
2023/07/06 10:02:48;;;;;;;6.05;5.55;;;;;;;21.66;50.98;100598.00;6096548;23;20608;-71
2023/07/06 10:05:37;;;;;;;5.55;5.20;;;;;;;21.82;50.92;100625.84;6088153;23;20096;-72
2023/07/06 10:08:13;;;;;;;5.40;5.10;;;;;;;22.52;49.00;100579.53;6111007;23;20021;-71
2023/07/06 10:11:09;;;;;;;5.18;4.97;;;;;;;22.36;47.13;100442.06;6113779;23;20118;-71
2023/07/06 10:13:56;;;;;;;5.43;5.18;;;;;;;22.81;46.25;100422.09;6061780;23;20052;-70
2023/07/06 10:16:34;;;;;;;5.60;5.30;;;;;;;22.81;47.14;100590.66;6110187;23;20037;-71
2023/07/06 10:19:29;;;;;;;5.53;5.22;;;;;;;23.20;46.47;100563.34;6088676;23;20009;-71
2023/07/06 10:22:20;;;;;;;5.63;5.25;;;;;;;22.40;45.93;100454.13;6108223;23;20084;-71
2023/07/06 10:25:15;;;;;;;5.32;5.03;;;;;;;23.27;46.63;100614.38;6110870;23;20652;-71
2023/07/06 10:27:49;;;;;;;5.25;5.05;;;;;;;22.95;45.50;100465.25;6110069;23;20005;-71
2023/07/06 10:30:26;;;;;;;5.40;5.20;;;;;;;22.84;45.43;100503.88;6112053;23;20063;-72
2023/07/06 10:32:57;;;;;;;5.50;5.20;;;;;;;23.27;45.85;100622.41;6102826;23;20467;-72
2023/07/06 10:35:32;;;;;;;5.80;5.50;;;;;;;23.05;44.96;100493.56;6113868;23;20029;-70
2023/07/06 10:37:59;;;;;;;5.38;5.07;;;;;;;23.68;45.05;100614.41;6108320;23;20013;-72
2023/07/06 10:40:27;;;;;;;6.15;5.70;;;;;;;23.71;45.78;100608.72;6111547;23;20029;-71
2023/07/06 10:43:21;;;;;;;5.75;5.30;;;;;;;23.57;42.56;100424.53;6112244;23;20054;-71
2023/07/06 10:45:51;;;;;;;5.80;5.50;;;;;;;23.85;43.38;100570.56;6111332;23;20021;-70
2023/07/06 10:48:22;;;;;;;5.80;5.50;;;;;;;24.00;44.00;100612.75;6111060;23;20080;-70
2023/07/06 10:50:51;;;;;;;5.50;5.20;;;;;;;23.32;42.06;100451.38;6112700;23;20025;-71
2023/07/06 10:53:25;;;;;;;5.50;5.20;;;;;;;22.83;41.63;100416.56;6088440;23;20594;-72
2023/07/06 10:56:00;;;;;;;5.30;5.10;;;;;;;23.32;42.13;100561.16;6106199;23;20022;-71
2023/07/06 10:58:29;;;;;;;5.90;5.60;;;;;;;23.89;42.46;100625.50;6091535;23;20018;-72
2023/07/06 11:00:58;;;;;;;5.60;5.30;;;;;;;24.24;41.50;100583.19;6082323;23;20041;-73
2023/07/06 11:03:31;;;;;;;5.85;5.35;;;;;;;24.78;40.05;100536.06;6085170;23;20037;-73
2023/07/06 11:06:05;;;;;;;5.70;5.40;;;;;;;24.93;39.62;100526.19;6111379;23;20016;-72
2023/07/06 11:09:07;;;;;;;5.80;5.40;;;;;;;24.43;38.81;100493.44;6087838;23;20041;-71
2023/07/06 11:11:39;;;;;;;5.50;5.20;;;;;;;24.37;40.41;100587.19;6112886;23;20108;-71
2023/07/06 11:14:31;;;;;;;5.20;5.00;;;;;;;24.71;40.50;100678.13;6111755;23;20042;-71
2023/07/06 11:17:13;;;;;;;5.18;4.97;;;;;;;24.30;40.14;100568.28;6111304;23;20083;-71
2023/07/06 11:20:20;;;;;;;5.82;5.03;;;;;;;24.53;40.56;100646.16;6084257;23;20616;-71
2023/07/06 11:22:54;;;;;;;5.50;5.22;;;;;;;24.67;40.18;100663.41;6062021;23;20044;-71
2023/07/06 11:25:21;;;;;;;5.63;5.32;;;;;;;24.69;39.13;100589.75;6086460;23;20560;-71
2023/07/06 11:27:53;;;;;;;5.43;5.10;;;;;;;24.87;39.84;100663.81;6110292;23;20030;-70
2023/07/06 11:30:50;;;;;;;5.75;5.38;;;;;;;25.14;39.23;100685.84;6115184;23;20094;-72
2023/07/06 11:33:29;;;;;;;5.53;5.22;;;;;;;25.00;39.81;100695.50;6084568;23;20017;-70
2023/07/06 11:36:08;;;;;;;5.38;5.18;;;;;;;24.75;40.55;100708.16;6111603;23;20027;-73
2023/07/06 11:39:09;;;;;;;5.53;5.22;;;;;;;24.79;38.91;100613.69;6088353;23;20014;-71
2023/07/06 11:41:53;;;;;;;5.65;5.35;;;;;;;25.08;38.33;100671.28;6118615;23;20013;-73